createdAt,value
2018-04-23T00:01:00.143Z,4.87
2018-04-23T00:03:28.515Z,4.97
2018-04-23T00:05:56.880Z,5.40
2018-04-23T00:08:25.321Z,4.53
2018-04-23T00:10:53.774Z,5.27
2018-04-23T00:13:22.051Z,5.30
2018-04-23T00:15:50.523Z,5.20
2018-04-23T00:18:18.894Z,4.73
2018-04-23T00:20:47.290Z,5.63
2018-04-23T00:23:15.586Z,4.80
2018-04-23T00:25:43.993Z,4.90
2018-04-23T00:28:13.019Z,5.03
2018-04-23T00:30:41.269Z,5.40
2018-04-23T00:33:09.658Z,5.53
2018-04-23T00:35:38.157Z,4.83
2018-04-23T00:38:06.547Z,4.87
2018-04-23T00:40:34.918Z,4.67
2018-04-23T00:43:03.298Z,4.83
2018-04-23T00:45:31.699Z,4.90
2018-04-23T00:48:00.053Z,4.63
2018-04-23T00:50:28.459Z,5.00
2018-04-23T00:53:09.110Z,4.97
2018-04-23T00:55:37.515Z,4.57
2018-04-23T00:58:05.772Z,5.00
2018-04-23T01:00:34.055Z,5.10
2018-04-23T01:03:02.359Z,4.40
2018-04-23T01:05:30.633Z,4.60
2018-04-23T01:07:59.398Z,4.47
2018-04-23T01:10:27.722Z,4.80
2018-04-23T01:12:57.069Z,4.37
2018-04-23T01:15:25.462Z,4.80
2018-04-23T01:17:53.758Z,4.50
2018-04-23T01:20:22.214Z,4.80
2018-04-23T01:22:50.574Z,4.73
2018-04-23T01:25:18.920Z,4.33
2018-04-23T01:27:47.950Z,4.43
2018-04-23T01:30:16.217Z,4.73
2018-04-23T01:32:44.686Z,4.50
2018-04-23T01:35:12.957Z,4.67
2018-04-23T01:37:41.401Z,4.20
2018-04-23T01:40:09.782Z,4.53
2018-04-23T01:42:38.537Z,4.03
2018-04-23T01:45:06.798Z,4.30
2018-04-23T01:47:35.281Z,3.93
2018-04-23T01:50:03.686Z,4.00
2018-04-23T01:52:32.011Z,4.60
2018-04-23T01:55:01.057Z,4.17
2018-04-23T01:57:29.330Z,4.00
2018-04-23T01:59:57.824Z,4.40
2018-04-23T02:02:26.177Z,4.60
2018-04-23T02:04:54.570Z,4.40
2018-04-23T02:07:22.872Z,4.50
2018-04-23T02:09:51.148Z,4.77
2018-04-23T02:12:19.657Z,4.33
2018-04-23T02:14:48.095Z,4.63
2018-04-23T02:17:16.358Z,4.13
2018-04-23T02:19:44.833Z,4.37
2018-04-23T02:22:13.201Z,4.30
2018-04-23T02:24:41.575Z,4.17
2018-04-23T02:27:09.926Z,4.03
2018-04-23T02:29:38.390Z,3.90
2018-04-23T02:32:07.437Z,4.40
2018-04-23T02:34:36.026Z,3.97
2018-04-23T02:37:04.355Z,4.27
2018-04-23T02:39:32.729Z,3.90
2018-04-23T02:42:01.005Z,4.27
2018-04-23T02:44:29.268Z,4.10
2018-04-23T02:46:57.583Z,4.03
2018-04-23T02:49:26.609Z,4.30
2018-04-23T02:51:55.321Z,4.17
2018-04-23T02:54:23.692Z,3.57
2018-04-23T02:56:52.000Z,3.80
2018-04-23T02:59:20.675Z,3.90
2018-04-23T03:01:48.949Z,3.50
2018-04-23T03:04:17.443Z,3.80
2018-04-23T03:06:45.895Z,3.80
2018-04-23T03:09:14.245Z,3.73
2018-04-23T03:11:42.678Z,3.67
2018-04-23T03:14:11.749Z,3.80
2018-04-23T03:16:40.259Z,3.63
2018-04-23T03:19:08.554Z,3.70
2018-04-23T03:21:37.006Z,3.60
2018-04-23T03:24:05.471Z,3.60
2018-04-23T03:26:33.794Z,3.97
2018-04-23T03:29:02.228Z,3.70
2018-04-23T03:31:30.612Z,4.30
2018-04-23T03:33:58.883Z,3.60
2018-04-23T03:36:27.290Z,3.53
2018-04-23T03:38:55.749Z,3.43
2018-04-23T03:41:24.013Z,3.20
2018-04-23T03:43:52.481Z,3.40
2018-04-23T03:46:20.751Z,3.60
2018-04-23T03:48:49.014Z,3.80
2018-04-23T03:51:17.339Z,3.90
2018-04-23T03:53:45.600Z,3.70
2018-04-23T03:56:15.024Z,3.50
2018-04-23T03:58:43.399Z,3.57
2018-04-23T04:01:11.735Z,3.50
2018-04-23T04:03:40.141Z,3.70
2018-04-23T04:06:08.444Z,3.53
2018-04-23T04:08:37.208Z,3.37
2018-04-23T04:11:05.481Z,3.53
2018-04-23T04:13:45.872Z,3.10
2018-04-23T04:16:25.836Z,3.60
2018-04-23T04:18:54.118Z,3.37
2018-04-23T04:21:22.391Z,3.40
2018-04-23T04:23:50.848Z,3.30
2018-04-23T04:26:19.146Z,3.03
2018-04-23T04:28:47.585Z,3.60
2018-04-23T04:31:15.846Z,3.60
2018-04-23T04:33:44.378Z,3.30
2018-04-23T04:36:12.723Z,3.27
2018-04-23T04:38:41.119Z,3.57
2018-04-23T04:41:09.451Z,3.53
2018-04-23T04:43:37.734Z,3.30
2018-04-23T04:46:06.375Z,3.00
2018-04-23T04:48:34.640Z,3.13
2018-04-23T04:51:03.241Z,3.10
2018-04-23T04:53:31.498Z,3.37
2018-04-23T04:55:59.759Z,2.90
2018-04-23T04:58:28.024Z,3.50
2018-04-23T05:00:56.495Z,2.70
2018-04-23T05:03:24.905Z,2.83
2018-04-23T05:05:53.193Z,2.77
2018-04-23T05:08:21.454Z,3.40
2018-04-23T05:10:49.715Z,3.00
2018-04-23T05:13:17.984Z,2.90
2018-04-23T05:15:46.497Z,3.17
2018-04-23T05:18:14.886Z,3.20
2018-04-23T05:20:43.221Z,3.53
2018-04-23T05:23:12.270Z,2.80
2018-04-23T05:25:40.562Z,3.20
2018-04-23T05:28:09.244Z,3.10
2018-04-23T05:30:37.684Z,3.40
2018-04-23T05:33:05.992Z,3.03
2018-04-23T05:35:34.472Z,3.00
2018-04-23T05:38:02.774Z,2.93
2018-04-23T05:40:31.801Z,3.17
2018-04-23T05:43:00.459Z,3.50
2018-04-23T05:45:29.117Z,3.03
2018-04-23T05:47:57.576Z,3.63
2018-04-23T05:50:25.869Z,3.53
2018-04-23T05:52:54.198Z,4.00
2018-04-23T05:55:22.449Z,3.90
2018-04-23T05:57:50.720Z,3.83
2018-04-23T06:00:19.158Z,3.23
2018-04-23T06:02:47.529Z,3.60
2018-04-23T06:05:15.878Z,4.33
2018-04-23T06:07:44.292Z,4.03
2018-04-23T06:10:12.576Z,4.30
2018-04-23T06:12:41.060Z,4.37
2018-04-23T06:15:09.359Z,3.57
2018-04-23T06:17:37.803Z,3.50
2018-04-23T06:20:06.085Z,3.53
2018-04-23T06:22:34.335Z,3.63
2018-04-23T06:25:02.678Z,3.87
2018-04-23T06:27:31.020Z,3.70
2018-04-23T06:29:59.285Z,3.40
2018-04-23T06:32:27.763Z,4.00
2018-04-23T06:34:56.087Z,4.13
2018-04-23T06:37:24.528Z,3.73
2018-04-23T06:39:52.863Z,4.00
2018-04-23T06:42:21.877Z,4.23
2018-04-23T06:44:50.281Z,4.20
2018-04-23T06:47:18.659Z,4.43
2018-04-23T06:49:47.080Z,3.97
2018-04-23T06:52:15.364Z,3.67
2018-04-23T06:54:43.742Z,4.10
2018-04-23T06:57:12.772Z,4.07
2018-04-23T06:59:41.411Z,4.27
2018-04-23T07:02:09.802Z,3.70
2018-04-23T07:04:38.853Z,3.50
2018-04-23T07:07:07.470Z,3.60
2018-04-23T07:09:35.728Z,3.80
2018-04-23T07:12:04.234Z,3.97
2018-04-23T07:14:33.419Z,3.83
2018-04-23T07:17:02.008Z,3.50
2018-04-23T07:19:30.362Z,3.50
2018-04-23T07:21:58.629Z,3.80
2018-04-23T07:24:27.046Z,3.80
2018-04-23T07:26:55.488Z,4.00
2018-04-23T07:29:23.845Z,3.80
2018-04-23T07:31:52.245Z,3.53
2018-04-23T07:34:20.586Z,4.30
2018-04-23T07:36:48.996Z,3.67
2018-04-23T07:39:17.399Z,3.40
2018-04-23T07:41:45.700Z,3.63
2018-04-23T07:44:14.145Z,3.33
2018-04-23T07:46:42.453Z,3.60
2018-04-23T07:49:10.699Z,3.20
2018-04-23T07:51:39.087Z,3.40
2018-04-23T07:54:07.361Z,3.27
2018-04-23T07:56:35.733Z,3.50
2018-04-23T07:59:04.064Z,3.47
2018-04-23T08:01:33.097Z,3.50
2018-04-23T08:04:01.367Z,3.57
2018-04-23T08:06:29.692Z,4.03
2018-04-23T08:08:58.049Z,3.43
2018-04-23T08:11:26.313Z,3.70
2018-04-23T08:13:54.685Z,3.80
2018-04-23T08:16:22.965Z,4.00
2018-04-23T08:18:51.231Z,3.60
2018-04-23T08:21:19.539Z,3.73
2018-04-23T08:23:47.851Z,3.43
2018-04-23T08:26:16.305Z,3.40
2018-04-23T08:28:44.601Z,3.60
2018-04-23T08:31:13.643Z,3.83
2018-04-23T08:33:41.962Z,3.60
2018-04-23T08:36:10.439Z,3.70
2018-04-23T08:38:38.787Z,10.83
2018-04-23T08:41:07.443Z,5.03
2018-04-23T08:43:35.878Z,4.43
2018-04-23T08:46:04.165Z,4.10
2018-04-23T08:48:32.402Z,4.17
2018-04-23T08:51:00.694Z,4.60
2018-04-23T08:53:28.962Z,3.93
2018-04-23T08:55:57.274Z,3.67
2018-04-23T08:58:25.528Z,4.37
2018-04-23T09:00:54.047Z,3.87
2018-04-23T09:03:22.298Z,4.17
2018-04-23T09:05:50.687Z,4.07
2018-04-23T09:08:18.937Z,4.13
2018-04-23T09:10:47.210Z,4.00
2018-04-23T09:13:15.723Z,4.10
2018-04-23T09:15:44.191Z,3.80
2018-04-23T09:18:12.554Z,3.90
2018-04-23T09:20:40.946Z,3.30
2018-04-23T09:23:09.279Z,3.87
2018-04-23T09:25:37.931Z,3.30
2018-04-23T09:28:06.335Z,3.67
2018-04-23T09:30:35.730Z,3.30
2018-04-23T09:33:04.068Z,3.50
2018-04-23T09:35:32.388Z,3.97
2018-04-23T09:38:00.852Z,3.17
2018-04-23T09:40:29.192Z,3.53
2018-04-23T09:42:57.469Z,3.50
2018-04-23T09:45:25.892Z,3.70
2018-04-23T09:47:54.341Z,3.40
2018-04-23T09:50:22.645Z,3.70
2018-04-23T09:52:51.028Z,3.70
2018-04-23T09:55:19.464Z,3.30
2018-04-23T09:57:47.802Z,3.80
2018-04-23T10:00:22.531Z,3.77
2018-04-23T10:02:50.798Z,3.50
2018-04-23T10:05:19.056Z,3.50
2018-04-23T10:07:47.435Z,3.10
2018-04-23T10:10:15.899Z,3.47
2018-04-23T10:12:44.195Z,3.47
2018-04-23T10:15:12.468Z,3.27
2018-04-23T10:17:40.752Z,3.47
2018-04-23T10:20:09.029Z,8.27
2018-04-23T10:22:37.511Z,6.93
2018-04-23T10:25:05.803Z,9.93
2018-04-23T10:27:34.847Z,9.10
2018-04-23T10:30:03.323Z,7.07
2018-04-23T10:32:31.604Z,6.10
2018-04-23T10:34:59.986Z,6.07
2018-04-23T10:37:28.282Z,5.63
2018-04-23T10:39:56.722Z,4.57
2018-04-23T10:42:24.978Z,4.30
2018-04-23T10:44:53.278Z,4.40
2018-04-23T10:47:21.536Z,4.23
2018-04-23T10:49:50.558Z,4.23
2018-04-23T10:52:18.961Z,3.87
2018-04-23T10:54:47.281Z,4.03
2018-04-23T10:57:15.716Z,4.90
2018-04-23T10:59:43.976Z,4.70
2018-04-23T11:02:12.252Z,4.73
2018-04-23T11:04:40.883Z,5.07
2018-04-23T11:07:09.230Z,4.83
2018-04-23T11:09:37.537Z,5.13
2018-04-23T11:12:05.770Z,4.77
2018-04-23T11:14:34.050Z,5.07
2018-04-23T11:17:02.328Z,4.90
2018-04-23T11:19:30.788Z,4.93
2018-04-23T11:21:59.489Z,4.50
2018-04-23T11:24:27.886Z,4.73
2018-04-23T11:26:56.225Z,5.23
2018-04-23T11:29:24.599Z,4.37
2018-04-23T11:31:53.055Z,4.00
2018-04-23T11:34:21.419Z,4.40
2018-04-23T11:36:49.695Z,4.53
2018-04-23T11:39:17.970Z,4.60
2018-04-23T11:41:46.521Z,4.53
2018-04-23T11:44:14.786Z,4.73
2018-04-23T11:46:43.050Z,4.30
2018-04-23T11:49:11.309Z,4.10
2018-04-23T11:51:40.381Z,4.57
2018-04-23T11:54:08.850Z,4.40
2018-04-23T11:56:37.124Z,4.37
2018-04-23T11:59:05.483Z,9.90
2018-04-23T12:01:33.911Z,5.40
2018-04-23T12:04:02.266Z,4.73
2018-04-23T12:06:30.559Z,4.67
2018-04-23T12:08:59.224Z,4.90
2018-04-23T12:11:27.630Z,4.20
2018-04-23T12:13:56.071Z,4.57
2018-04-23T12:16:24.446Z,4.50
2018-04-23T12:18:53.090Z,4.70
2018-04-23T12:21:21.527Z,4.27
2018-04-23T12:23:49.821Z,4.07
2018-04-23T12:26:18.273Z,4.87
2018-04-23T12:28:46.587Z,4.13
2018-04-23T12:31:14.862Z,4.13
2018-04-23T12:33:43.158Z,4.30
2018-04-23T12:36:13.640Z,4.23
2018-04-23T12:38:42.043Z,4.27
2018-04-23T12:41:11.088Z,3.63
2018-04-23T12:43:39.414Z,4.13
2018-04-23T12:46:07.743Z,4.03
2018-04-23T12:48:35.946Z,3.83
2018-04-23T12:51:04.273Z,3.50
2018-04-23T12:53:32.490Z,4.03
2018-04-23T12:56:00.762Z,3.57
2018-04-23T12:58:29.052Z,3.60
2018-04-23T13:00:57.369Z,3.73
2018-04-23T13:03:26.395Z,3.80
2018-04-23T13:05:54.802Z,3.57
2018-04-23T13:08:23.110Z,3.63
2018-04-23T13:10:51.553Z,3.60
2018-04-23T13:13:19.865Z,3.73
2018-04-23T13:15:48.322Z,3.40
2018-04-23T13:18:16.637Z,3.60
2018-04-23T13:20:44.932Z,3.67
2018-04-23T13:23:13.182Z,3.20
2018-04-23T13:25:41.456Z,3.90
2018-04-23T13:28:09.875Z,3.40
2018-04-23T13:30:38.239Z,3.23
2018-04-23T13:33:07.276Z,3.50
2018-04-23T13:35:35.665Z,3.60
2018-04-23T13:38:03.969Z,3.80
2018-04-23T13:40:32.230Z,3.50
2018-04-23T13:43:00.483Z,3.00
2018-04-23T13:45:28.789Z,3.60
2018-04-23T13:47:57.490Z,3.43
2018-04-23T13:50:25.857Z,3.53
2018-04-23T13:52:54.117Z,3.43
2018-04-23T13:55:22.384Z,3.77
2018-04-23T13:57:50.777Z,3.57
2018-04-23T14:00:19.137Z,3.47
2018-04-23T14:02:47.543Z,3.30
2018-04-23T14:05:15.916Z,3.60
2018-04-23T14:07:44.488Z,3.40
2018-04-23T14:10:12.775Z,3.57
2018-04-23T14:12:41.047Z,3.17
2018-04-23T14:15:09.437Z,3.60
2018-04-23T14:17:37.789Z,3.17
2018-04-23T14:20:06.178Z,3.33
2018-04-23T14:22:34.443Z,3.20
2018-04-23T14:25:02.811Z,3.23
2018-04-23T14:27:31.136Z,3.33
2018-04-23T14:29:59.384Z,3.47
2018-04-23T14:32:27.773Z,3.33
2018-04-23T14:34:56.080Z,3.40
2018-04-23T14:37:24.340Z,3.00
2018-04-23T14:39:52.598Z,3.17
2018-04-23T14:42:20.872Z,3.10
2018-04-23T14:44:49.360Z,3.10
2018-04-23T14:47:17.742Z,3.33
2018-04-23T14:49:46.117Z,3.53
2018-04-23T14:52:14.389Z,3.43
2018-04-23T14:54:42.819Z,3.20
2018-04-23T14:57:11.857Z,3.40
2018-04-23T14:59:40.250Z,3.07
2018-04-23T15:02:08.619Z,3.03
2018-04-23T15:04:36.939Z,3.10
2018-04-23T15:07:05.970Z,3.20
2018-04-23T15:09:34.274Z,3.10
2018-04-23T15:12:02.542Z,3.70
2018-04-23T15:14:30.840Z,4.60
2018-04-23T15:16:59.197Z,4.10
2018-04-23T15:19:27.517Z,3.63
2018-04-23T15:21:55.802Z,3.80
2018-04-23T15:24:24.327Z,6.70
2018-04-23T15:26:52.760Z,4.53
2018-04-23T15:29:20.990Z,4.20
2018-04-23T15:31:49.476Z,4.10
2018-04-23T15:34:17.857Z,3.63
2018-04-23T15:36:46.253Z,4.30
2018-04-23T15:39:14.526Z,4.50
2018-04-23T15:41:42.996Z,4.07
2018-04-23T15:44:11.271Z,3.43
2018-04-23T15:46:39.537Z,3.90
2018-04-23T15:49:07.879Z,3.17
2018-04-23T15:51:36.189Z,3.10
2018-04-23T15:54:04.587Z,3.10
2018-04-23T15:56:32.886Z,2.70
2018-04-23T15:59:01.178Z,3.40
2018-04-23T16:01:29.442Z,3.33
2018-04-23T16:03:57.717Z,3.30
2018-04-23T16:06:26.154Z,3.20
2018-04-23T16:08:54.478Z,3.20
2018-04-23T16:11:22.854Z,3.17
2018-04-23T16:13:51.307Z,3.60
2018-04-23T16:16:19.666Z,2.93
2018-04-23T16:18:47.998Z,3.10
2018-04-23T16:21:16.402Z,3.13
2018-04-23T16:23:45.435Z,3.60
2018-04-23T16:26:13.707Z,3.07
2018-04-23T16:28:42.484Z,3.03
2018-04-23T16:31:10.875Z,2.97
2018-04-23T16:33:39.270Z,3.37
2018-04-23T16:36:08.380Z,3.30
2018-04-23T16:38:37.961Z,3.30
2018-04-23T16:41:06.403Z,3.43
2018-04-23T16:43:34.879Z,3.17
2018-04-23T16:46:04.333Z,3.27
2018-04-23T16:48:33.152Z,2.80
2018-04-23T16:51:01.619Z,3.13
2018-04-23T16:53:30.826Z,2.67
2018-04-23T16:55:59.265Z,3.00
2018-04-23T16:58:29.330Z,2.93
2018-04-23T17:00:59.116Z,2.80
2018-04-23T17:03:27.763Z,3.20
2018-04-23T17:05:56.792Z,2.63
2018-04-23T17:08:27.300Z,3.07
2018-04-23T17:10:55.561Z,2.97
2018-04-23T17:13:24.960Z,3.00
2018-04-23T17:15:53.362Z,3.13
2018-04-23T17:18:21.704Z,3.50
2018-04-23T17:20:50.103Z,2.70
2018-04-23T17:23:18.782Z,3.27
2018-04-23T17:25:47.836Z,3.20
2018-04-23T17:28:16.208Z,5.30
2018-04-23T17:30:44.507Z,4.50
2018-04-23T17:33:12.769Z,3.40
2018-04-23T17:35:41.040Z,3.10
2018-04-23T17:38:09.697Z,3.20
2018-04-23T17:40:37.967Z,2.87
2018-04-23T17:43:06.455Z,3.10
2018-04-23T17:45:34.829Z,2.90
2018-04-23T17:48:03.109Z,3.40
2018-04-23T17:50:31.379Z,3.07
2018-04-23T17:52:59.665Z,2.80
2018-04-23T17:55:28.052Z,3.17
2018-04-23T17:57:56.387Z,3.23
2018-04-23T18:00:25.409Z,3.30
2018-04-23T18:02:53.796Z,2.67
2018-04-23T18:05:22.180Z,2.80
2018-04-23T18:07:50.441Z,2.90
2018-04-23T18:10:18.750Z,2.90
2018-04-23T18:12:47.033Z,2.60
2018-04-23T18:15:15.424Z,3.20
2018-04-23T18:17:43.715Z,3.00
2018-04-23T18:20:11.980Z,3.27
2018-04-23T18:22:40.255Z,2.77
2018-04-23T18:25:08.599Z,2.87
2018-04-23T18:27:36.871Z,2.77
2018-04-23T18:30:05.135Z,2.93
2018-04-23T18:32:33.448Z,3.37
2018-04-23T18:35:01.781Z,3.17
2018-04-23T18:37:30.042Z,3.10
2018-04-23T18:39:58.385Z,3.37
2018-04-23T18:42:26.675Z,3.20
2018-04-23T18:44:55.036Z,3.50
2018-04-23T18:47:23.635Z,3.20
2018-04-23T18:49:51.970Z,2.80
2018-04-23T18:52:20.170Z,3.03
2018-04-23T18:54:48.476Z,3.17
2018-04-23T18:57:17.229Z,2.90
2018-04-23T18:59:45.538Z,3.07
2018-04-23T19:02:13.987Z,3.37
2018-04-23T19:04:42.273Z,2.73
2018-04-23T19:07:10.538Z,3.00
2018-04-23T19:09:38.828Z,2.80
2018-04-23T19:12:07.094Z,2.80
2018-04-23T19:14:35.514Z,2.70
2018-04-23T19:17:03.806Z,2.90
2018-04-23T19:24:58.713Z,2.67
2018-04-23T19:27:35.958Z,2.67
2018-04-23T19:30:06.526Z,2.67
2018-04-23T19:32:35.998Z,2.60
2018-04-23T19:43:03.601Z,2.53
2018-04-23T19:45:40.610Z,2.77
2018-04-23T19:48:17.581Z,3.20
2018-04-23T19:50:54.630Z,2.77
2018-04-23T19:53:31.221Z,2.90
2018-04-23T19:55:59.544Z,3.33
2018-04-23T19:58:33.466Z,2.67
2018-04-23T20:01:08.680Z,2.50
2018-04-23T20:06:28.551Z,2.80
2018-04-23T20:08:59.430Z,2.83
2018-04-23T20:11:29.517Z,3.03
2018-04-23T20:14:06.635Z,2.70
2018-04-23T20:19:19.367Z,2.77
2018-04-23T20:21:57.858Z,3.00
2018-04-23T20:24:40.682Z,2.73
2018-04-23T20:27:18.615Z,3.00
2018-04-23T20:32:30.895Z,2.90
2018-04-23T20:35:01.219Z,2.73
2018-04-23T20:37:29.468Z,3.00
2018-04-23T20:39:57.810Z,3.03
2018-04-23T20:42:26.197Z,2.83
2018-04-23T20:44:55.260Z,2.43
2018-04-23T20:47:23.763Z,2.87
2018-04-23T20:49:52.065Z,2.53
2018-04-23T20:52:20.373Z,3.00
2018-04-23T20:54:48.636Z,2.83
2018-04-23T20:57:17.279Z,3.17
2018-04-23T20:59:45.735Z,2.77
2018-04-23T21:02:14.002Z,2.70
2018-04-23T21:04:42.384Z,2.67
2018-04-23T21:07:10.552Z,2.90
2018-04-23T21:09:38.999Z,2.90
2018-04-23T21:12:08.027Z,2.67
2018-04-23T21:14:36.280Z,2.70
2018-04-23T21:17:04.744Z,3.10
2018-04-23T21:19:33.130Z,2.70
2018-04-23T21:22:01.562Z,2.30
2018-04-23T21:24:29.892Z,2.60
2018-04-23T21:26:58.312Z,2.50
2018-04-23T21:29:26.678Z,3.03
2018-04-23T21:31:55.920Z,2.90
2018-04-23T21:34:24.502Z,3.20
2018-04-23T21:36:52.755Z,2.80
2018-04-23T21:39:21.024Z,3.27
2018-04-23T21:41:49.756Z,2.33
2018-04-23T21:44:18.379Z,3.10
2018-04-23T21:46:47.183Z,2.77
2018-04-23T21:49:15.599Z,2.90
2018-04-23T21:51:44.620Z,2.90
2018-04-23T21:54:12.932Z,2.70
2018-04-23T21:56:41.289Z,2.53
2018-04-23T21:59:09.697Z,2.43
2018-04-23T22:01:38.040Z,2.90
2018-04-23T22:04:07.085Z,2.40
2018-04-23T22:06:35.478Z,2.73
2018-04-23T22:09:03.739Z,3.00
2018-04-23T22:11:32.209Z,3.30
2018-04-23T22:14:00.520Z,2.43
2018-04-23T22:16:28.777Z,2.93
2018-04-23T22:18:57.055Z,2.50
2018-04-23T22:21:25.378Z,2.70
2018-04-23T22:23:54.406Z,2.80
2018-04-23T22:26:22.742Z,2.73
2018-04-23T22:28:51.175Z,3.00
2018-04-23T22:31:19.442Z,2.77
2018-04-23T22:33:47.857Z,2.43
2018-04-23T22:36:16.334Z,2.40
2018-04-23T22:38:44.622Z,2.27
2018-04-23T22:41:12.893Z,2.60
2018-04-23T22:43:41.161Z,2.60
2018-04-23T22:46:09.454Z,2.70
2018-04-23T22:48:37.731Z,2.50
2018-04-23T22:51:06.264Z,2.50
2018-04-23T22:53:34.663Z,2.70
2018-04-23T22:56:02.923Z,2.53
2018-04-23T22:58:31.437Z,2.57
2018-04-23T23:01:00.400Z,2.60
2018-04-23T23:03:28.797Z,2.90
2018-04-23T23:05:57.185Z,2.17
2018-04-23T23:08:25.582Z,2.20
2018-04-23T23:21:29.141Z,2.33
2018-04-23T23:23:57.586Z,2.50
2018-04-23T23:26:25.842Z,2.20
2018-04-23T23:28:54.123Z,2.40
2018-04-23T23:31:22.658Z,2.50
2018-04-23T23:33:51.115Z,2.60
2018-04-23T23:36:19.394Z,2.27
2018-04-23T23:38:47.873Z,2.33
2018-04-23T23:41:16.190Z,2.50
2018-04-23T23:43:44.739Z,2.60
2018-04-23T23:46:13.009Z,2.40
2018-04-23T23:48:41.485Z,2.63
2018-04-23T23:51:10.008Z,2.00
2018-04-23T23:53:38.265Z,2.33
2018-04-23T23:56:06.538Z,2.47
2018-04-23T23:58:34.844Z,2.33
